sensor_id;sensor_type;location;lat;lon;timestamp;pressure;altitude;pressure_sealevel;temperature;humidity
41202;BME280;26936;50.524;8.684;2023-02-15T00:01:09;100899.47;;;0.62;100.00
41202;BME280;26936;50.524;8.684;2023-02-15T00:03:35;100892.53;;;0.68;100.00
41202;BME280;26936;50.524;8.684;2023-02-15T00:06:01;100894.19;;;0.57;100.00
41202;BME280;26936;50.524;8.684;2023-02-15T00:08:26;100891.06;;;0.58;100.00
41202;BME280;26936;50.524;8.684;2023-02-15T00:10:52;100893.81;;;0.58;100.00
41202;BME280;26936;50.524;8.684;2023-02-15T00:13:17;100886.50;;;0.66;100.00
41202;BME280;26936;50.524;8.684;2023-02-15T00:15:42;100886.66;;;0.57;100.00
41202;BME280;26936;50.524;8.684;2023-02-15T00:18:07;100887.75;;;0.41;100.00
41202;BME280;26936;50.524;8.684;2023-02-15T00:20:33;100889.53;;;0.61;100.00
41202;BME280;26936;50.524;8.684;2023-02-15T00:22:58;100886.41;;;0.62;100.00
41202;BME280;26936;50.524;8.684;2023-02-15T00:25:24;100887.28;;;0.39;100.00
41202;BME280;26936;50.524;8.684;2023-02-15T00:27:49;100883.91;;;0.45;100.00
41202;BME280;26936;50.524;8.684;2023-02-15T00:30:16;100872.94;;;0.49;100.00
41202;BME280;26936;50.524;8.684;2023-02-15T00:32:41;100866.56;;;0.48;100.00
41202;BME280;26936;50.524;8.684;2023-02-15T00:35:06;100864.94;;;0.59;100.00
41202;BME280;26936;50.524;8.684;2023-02-15T00:37:32;100870.69;;;0.66;100.00
41202;BME280;26936;50.524;8.684;2023-02-15T00:39:57;100859.88;;;0.49;100.00
41202;BME280;26936;50.524;8.684;2023-02-15T00:42:23;100866.34;;;0.53;100.00
41202;BME280;26936;50.524;8.684;2023-02-15T00:44:48;100866.81;;;0.55;100.00
41202;BME280;26936;50.524;8.684;2023-02-15T00:47:13;100857.78;;;0.58;100.00
41202;BME280;26936;50.524;8.684;2023-02-15T00:49:38;100852.59;;;0.57;100.00
41202;BME280;26936;50.524;8.684;2023-02-15T00:52:04;100860.38;;;0.39;100.00
41202;BME280;26936;50.524;8.684;2023-02-15T00:54:29;100854.84;;;0.39;100.00
41202;BME280;26936;50.524;8.684;2023-02-15T00:56:54;100864.31;;;0.26;100.00
41202;BME280;26936;50.524;8.684;2023-02-15T00:59:19;100863.28;;;0.31;100.00
41202;BME280;26936;50.524;8.684;2023-02-15T01:01:45;100872.84;;;0.33;100.00
41202;BME280;26936;50.524;8.684;2023-02-15T01:04:10;100873.75;;;0.37;100.00
41202;BME280;26936;50.524;8.684;2023-02-15T01:06:35;100869.00;;;0.50;100.00
41202;BME280;26936;50.524;8.684;2023-02-15T01:09:01;100866.81;;;0.55;100.00
41202;BME280;26936;50.524;8.684;2023-02-15T01:11:26;100863.81;;;0.48;100.00
41202;BME280;26936;50.524;8.684;2023-02-15T01:13:54;100858.28;;;0.36;100.00
41202;BME280;26936;50.524;8.684;2023-02-15T01:16:20;100858.19;;;0.33;100.00
41202;BME280;26936;50.524;8.684;2023-02-15T01:18:45;100856.78;;;0.27;100.00
41202;BME280;26936;50.524;8.684;2023-02-15T01:21:13;100860.97;;;0.21;100.00
41202;BME280;26936;50.524;8.684;2023-02-15T01:23:41;100855.06;;;0.34;100.00
41202;BME280;26936;50.524;8.684;2023-02-15T01:26:07;100858.84;;;0.42;100.00
41202;BME280;26936;50.524;8.684;2023-02-15T01:28:33;100865.66;;;0.44;100.00
41202;BME280;26936;50.524;8.684;2023-02-15T01:30:58;100859.56;;;0.39;100.00
41202;BME280;26936;50.524;8.684;2023-02-15T01:33:24;100857.22;;;0.53;100.00
41202;BME280;26936;50.524;8.684;2023-02-15T01:35:56;100852.50;;;0.41;100.00
41202;BME280;26936;50.524;8.684;2023-02-15T01:38:21;100854.13;;;0.42;100.00
41202;BME280;26936;50.524;8.684;2023-02-15T01:40:50;100852.50;;;0.41;100.00
41202;BME280;26936;50.524;8.684;2023-02-15T01:43:15;100853.66;;;0.52;100.00
41202;BME280;26936;50.524;8.684;2023-02-15T01:45:41;100841.97;;;0.47;100.00
41202;BME280;26936;50.524;8.684;2023-02-15T01:48:20;100835.75;;;0.38;100.00
41202;BME280;26936;50.524;8.684;2023-02-15T01:50:55;100839.13;;;0.31;100.00
41202;BME280;26936;50.524;8.684;2023-02-15T01:53:34;100841.22;;;0.34;100.00
41202;BME280;26936;50.524;8.684;2023-02-15T01:56:06;100841.69;;;0.24;100.00
41202;BME280;26936;50.524;8.684;2023-02-15T01:58:33;100841.34;;;0.14;100.00
41202;BME280;26936;50.524;8.684;2023-02-15T02:01:00;100839.03;;;0.16;100.00
41202;BME280;26936;50.524;8.684;2023-02-15T02:03:46;100842.38;;;0.21;100.00
41202;BME280;26936;50.524;8.684;2023-02-15T02:06:15;100830.84;;;0.19;100.00
41202;BME280;26936;50.524;8.684;2023-02-15T02:08:41;100832.91;;;0.34;100.00
41202;BME280;26936;50.524;8.684;2023-02-15T02:11:11;100829.53;;;0.41;100.00
41202;BME280;26936;50.524;8.684;2023-02-15T02:13:38;100831.94;;;0.42;100.00
41202;BME280;26936;50.524;8.684;2023-02-15T02:16:27;100835.72;;;0.50;100.00
41202;BME280;26936;50.524;8.684;2023-02-15T02:19:14;100831.34;;;0.49;100.00
41202;BME280;26936;50.524;8.684;2023-02-15T02:27:29;100821.03;;;0.61;100.00
41202;BME280;26936;50.524;8.684;2023-02-15T02:39:13;100809.44;;;0.44;100.00
41202;BME280;26936;50.524;8.684;2023-02-15T02:41:53;100794.41;;;0.45;100.00
41202;BME280;26936;50.524;8.684;2023-02-15T02:46:53;100796.94;;;0.50;100.00
41202;BME280;26936;50.524;8.684;2023-02-15T02:52:03;100788.63;;;0.38;100.00
41202;BME280;26936;50.524;8.684;2023-02-15T02:54:30;100788.75;;;0.41;100.00
41202;BME280;26936;50.524;8.684;2023-02-15T02:56:56;100784.88;;;0.30;100.00
41202;BME280;26936;50.524;8.684;2023-02-15T02:59:27;100780.13;;;0.31;100.00
41202;BME280;26936;50.524;8.684;2023-02-15T03:01:57;100780.59;;;0.33;100.00
41202;BME280;26936;50.524;8.684;2023-02-15T03:04:28;100778.22;;;0.47;100.00
41202;BME280;26936;50.524;8.684;2023-02-15T03:06:59;100780.63;;;0.60;100.00
41202;BME280;26936;50.524;8.684;2023-02-15T03:09:29;100776.06;;;0.40;100.00
41202;BME280;26936;50.524;8.684;2023-02-15T03:12:36;100778.38;;;0.38;100.00
41202;BME280;26936;50.524;8.684;2023-02-15T03:17:36;100771.34;;;0.41;100.00
41202;BME280;26936;50.524;8.684;2023-02-15T03:20:07;100766.56;;;0.41;100.00
41202;BME280;26936;50.524;8.684;2023-02-15T03:22:38;100769.28;;;0.26;100.00
41202;BME280;26936;50.524;8.684;2023-02-15T03:25:22;100773.88;;;0.34;100.00
41202;BME280;26936;50.524;8.684;2023-02-15T03:28:10;100765.94;;;0.20;100.00
41202;BME280;26936;50.524;8.684;2023-02-15T03:30:40;100771.00;;;0.30;100.00
41202;BME280;26936;50.524;8.684;2023-02-15T03:33:08;100762.41;;;0.47;100.00
41202;BME280;26936;50.524;8.684;2023-02-15T03:36:02;100763.09;;;0.44;100.00
41202;BME280;26936;50.524;8.684;2023-02-15T03:38:34;100763.03;;;0.41;100.00
41202;BME280;26936;50.524;8.684;2023-02-15T03:41:02;100773.50;;;0.47;100.00
41202;BME280;26936;50.524;8.684;2023-02-15T03:46:23;100773.44;;;0.32;100.00
41202;BME280;26936;50.524;8.684;2023-02-15T03:48:54;100757.72;;;0.36;100.00
41202;BME280;26936;50.524;8.684;2023-02-15T03:51:26;100757.84;;;0.39;100.00
41202;BME280;26936;50.524;8.684;2023-02-15T03:54:01;100760.66;;;0.55;100.00
41202;BME280;26936;50.524;8.684;2023-02-15T03:56:27;100750.06;;;0.45;100.00
41202;BME280;26936;50.524;8.684;2023-02-15T03:58:52;100747.38;;;0.48;100.00
41202;BME280;26936;50.524;8.684;2023-02-15T04:01:52;100748.56;;;0.47;100.00
41202;BME280;26936;50.524;8.684;2023-02-15T04:04:31;100746.19;;;0.22;100.00
41202;BME280;26936;50.524;8.684;2023-02-15T04:06:57;100742.84;;;0.56;100.00
41202;BME280;26936;50.524;8.684;2023-02-15T04:09:22;100743.19;;;0.54;100.00
41202;BME280;26936;50.524;8.684;2023-02-15T04:12:06;100740.53;;;0.58;100.00
41202;BME280;26936;50.524;8.684;2023-02-15T04:14:31;100744.03;;;0.43;100.00
41202;BME280;26936;50.524;8.684;2023-02-15T04:17:15;100747.19;;;0.41;100.00
41202;BME280;26936;50.524;8.684;2023-02-15T04:19:41;100745.97;;;0.54;100.00
41202;BME280;26936;50.524;8.684;2023-02-15T04:22:24;100740.63;;;0.34;100.00
41202;BME280;26936;50.524;8.684;2023-02-15T04:25:08;100742.31;;;0.50;100.00
41202;BME280;26936;50.524;8.684;2023-02-15T04:27:42;100743.97;;;0.39;100.00
41202;BME280;26936;50.524;8.684;2023-02-15T04:30:10;100738.06;;;0.41;100.00
41202;BME280;26936;50.524;8.684;2023-02-15T04:32:36;100737.28;;;0.28;100.00
41202;BME280;26936;50.524;8.684;2023-02-15T04:35:03;100742.13;;;0.31;100.00
41202;BME280;26936;50.524;8.684;2023-02-15T04:37:28;100738.09;;;0.29;100.00
41202;BME280;26936;50.524;8.684;2023-02-15T04:39:54;100734.53;;;0.28;100.00
41202;BME280;26936;50.524;8.684;2023-02-15T04:42:19;100728.53;;;0.26;100.00
41202;BME280;26936;50.524;8.684;2023-02-15T04:44:44;100730.25;;;0.31;100.00
41202;BME280;26936;50.524;8.684;2023-02-15T04:47:10;100731.22;;;0.50;100.00
41202;BME280;26936;50.524;8.684;2023-02-15T04:49:35;100719.19;;;0.31;100.00
41202;BME280;26936;50.524;8.684;2023-02-15T04:52:00;100726.47;;;0.51;100.00
41202;BME280;26936;50.524;8.684;2023-02-15T04:54:26;100726.38;;;0.47;100.00
41202;BME280;26936;50.524;8.684;2023-02-15T04:56:51;100726.13;;;0.52;100.00
41202;BME280;26936;50.524;8.684;2023-02-15T04:59:16;100724.75;;;0.46;100.00
41202;BME280;26936;50.524;8.684;2023-02-15T05:01:41;100728.94;;;0.40;100.00
41202;BME280;26936;50.524;8.684;2023-02-15T05:04:07;100720.75;;;0.59;100.00
41202;BME280;26936;50.524;8.684;2023-02-15T05:06:32;100720.22;;;0.54;100.00
41202;BME280;26936;50.524;8.684;2023-02-15T05:08:57;100724.84;;;0.50;100.00
41202;BME280;26936;50.524;8.684;2023-02-15T05:11:24;100721.47;;;0.56;100.00
41202;BME280;26936;50.524;8.684;2023-02-15T05:13:49;100722.44;;;0.48;100.00
41202;BME280;26936;50.524;8.684;2023-02-15T05:16:15;100720.47;;;0.49;100.00
41202;BME280;26936;50.524;8.684;2023-02-15T05:18:40;100726.41;;;0.35;100.00
41202;BME280;26936;50.524;8.684;2023-02-15T05:21:05;100721.38;;;0.53;100.00
41202;BME280;26936;50.524;8.684;2023-02-15T05:23:30;100723.50;;;0.44;100.00
41202;BME280;26936;50.524;8.684;2023-02-15T05:25:56;100712.59;;;0.51;100.00
41202;BME280;26936;50.524;8.684;2023-02-15T05:28:40;100710.03;;;0.58;100.00
41202;BME280;26936;50.524;8.684;2023-02-15T05:31:21;100708.47;;;0.45;100.00
41202;BME280;26936;50.524;8.684;2023-02-15T05:33:47;100705.78;;;0.33;100.00
41202;BME280;26936;50.524;8.684;2023-02-15T05:36:12;100708.13;;;0.46;100.00
41202;BME280;26936;50.524;8.684;2023-02-15T05:38:38;100704.88;;;0.44;100.00
41202;BME280;26936;50.524;8.684;2023-02-15T05:41:04;100707.66;;;0.44;100.00
41202;BME280;26936;50.524;8.684;2023-02-15T05:43:30;100707.66;;;0.44;100.00
41202;BME280;26936;50.524;8.684;2023-02-15T05:45:55;100708.59;;;0.48;100.00
41202;BME280;26936;50.524;8.684;2023-02-15T05:48:23;100704.28;;;0.51;100.00
41202;BME280;26936;50.524;8.684;2023-02-15T05:51:09;100702.06;;;0.56;100.00
41202;BME280;26936;50.524;8.684;2023-02-15T05:53:38;100702.13;;;0.44;100.00
41202;BME280;26936;50.524;8.684;2023-02-15T05:56:05;100708.84;;;0.43;100.00
41202;BME280;26936;50.524;8.684;2023-02-15T05:58:36;100705.72;;;0.45;100.00
41202;BME280;26936;50.524;8.684;2023-02-15T06:01:13;100712.31;;;0.40;100.00
41202;BME280;26936;50.524;8.684;2023-02-15T06:03:39;100715.22;;;0.59;100.00
41202;BME280;26936;50.524;8.684;2023-02-15T06:06:05;100715.28;;;0.47;100.00
41202;BME280;26936;50.524;8.684;2023-02-15T06:08:32;100714.69;;;0.54;100.00
41202;BME280;26936;50.524;8.684;2023-02-15T06:10:57;100716.28;;;0.55;100.00
41202;BME280;26936;50.524;8.684;2023-02-15T06:13:22;100718.66;;;0.68;100.00
41202;BME280;26936;50.524;8.684;2023-02-15T06:15:48;100721.13;;;0.58;100.00
41202;BME280;26936;50.524;8.684;2023-02-15T06:18:13;100724.97;;;0.53;100.00
41202;BME280;26936;50.524;8.684;2023-02-15T06:20:38;100721.84;;;0.55;100.00
41202;BME280;26936;50.524;8.684;2023-02-15T06:23:03;100726.47;;;0.51;100.00
41202;BME280;26936;50.524;8.684;2023-02-15T06:25:29;100727.53;;;0.46;100.00
41202;BME280;26936;50.524;8.684;2023-02-15T06:27:54;100723.06;;;0.57;100.00
41202;BME280;26936;50.524;8.684;2023-02-15T06:30:19;100724.50;;;0.51;100.00
41202;BME280;26936;50.524;8.684;2023-02-15T06:32:45;100736.50;;;0.55;100.00
41202;BME280;26936;50.524;8.684;2023-02-15T06:35:10;100748.31;;;0.52;100.00
41202;BME280;26936;50.524;8.684;2023-02-15T06:37:35;100736.25;;;0.60;100.00
41202;BME280;26936;50.524;8.684;2023-02-15T06:40:01;100749.91;;;0.53;100.00
41202;BME280;26936;50.524;8.684;2023-02-15T06:42:26;100738.38;;;0.51;100.00
41202;BME280;26936;50.524;8.684;2023-02-15T06:44:51;100740.63;;;0.61;100.00
41202;BME280;26936;50.524;8.684;2023-02-15T06:47:16;100750.63;;;0.50;100.00
41202;BME280;26936;50.524;8.684;2023-02-15T06:49:42;100748.09;;;0.45;100.00
41202;BME280;26936;50.524;8.684;2023-02-15T06:52:07;100745.69;;;0.44;100.00
41202;BME280;26936;50.524;8.684;2023-02-15T06:54:32;100742.06;;;0.55;100.00
41202;BME280;26936;50.524;8.684;2023-02-15T06:56:57;100739.53;;;0.50;100.00
41202;BME280;26936;50.524;8.684;2023-02-15T06:59:23;100749.09;;;0.53;100.00
41202;BME280;26936;50.524;8.684;2023-02-15T07:01:48;100746.44;;;0.56;100.00
41202;BME280;26936;50.524;8.684;2023-02-15T07:04:14;100748.13;;;0.61;100.00
41202;BME280;26936;50.524;8.684;2023-02-15T07:06:39;100743.44;;;0.49;100.00
41202;BME280;26936;50.524;8.684;2023-02-15T07:09:05;100747.69;;;0.59;100.00
41202;BME280;26936;50.524;8.684;2023-02-15T07:11:30;100743.41;;;0.61;100.00
41202;BME280;26936;50.524;8.684;2023-02-15T07:14:14;100751.25;;;0.59;100.00
41202;BME280;26936;50.524;8.684;2023-02-15T07:16:40;100741.72;;;0.72;100.00
41202;BME280;26936;50.524;8.684;2023-02-15T07:19:05;100740.59;;;0.73;100.00
41202;BME280;26936;50.524;8.684;2023-02-15T07:21:32;100744.97;;;0.74;100.00
41202;BME280;26936;50.524;8.684;2023-02-15T07:23:58;100749.16;;;0.68;100.00
41202;BME280;26936;50.524;8.684;2023-02-15T07:26:24;100749.06;;;0.65;100.00
41202;BME280;26936;50.524;8.684;2023-02-15T07:28:49;100749.59;;;0.70;100.00
41202;BME280;26936;50.524;8.684;2023-02-15T07:31:14;100745.91;;;0.66;100.00
41202;BME280;26936;50.524;8.684;2023-02-15T07:33:40;100747.00;;;0.62;100.00
41202;BME280;26936;50.524;8.684;2023-02-15T07:36:06;100752.19;;;0.63;100.00
41202;BME280;26936;50.524;8.684;2023-02-15T07:38:40;100758.19;;;0.65;100.00
41202;BME280;26936;50.524;8.684;2023-02-15T07:41:10;100746.31;;;0.80;100.00
41202;BME280;26936;50.524;8.684;2023-02-15T07:43:39;100742.38;;;0.81;100.00
41202;BME280;26936;50.524;8.684;2023-02-15T07:46:07;100739.88;;;0.76;100.00
41202;BME280;26936;50.524;8.684;2023-02-15T07:48:35;100743.09;;;0.78;100.00
41202;BME280;26936;50.524;8.684;2023-02-15T07:51:02;100726.72;;;0.89;100.00
41202;BME280;26936;50.524;8.684;2023-02-15T07:53:29;100732.63;;;0.87;100.00
41202;BME280;26936;50.524;8.684;2023-02-15T07:55:58;100730.22;;;0.86;100.00
41202;BME280;26936;50.524;8.684;2023-02-15T07:58:23;100730.38;;;0.77;100.00
41202;BME280;26936;50.524;8.684;2023-02-15T08:01:09;100727.81;;;0.84;100.00
41202;BME280;26936;50.524;8.684;2023-02-15T08:03:34;100719.50;;;1.00;100.00
41202;BME280;26936;50.524;8.684;2023-02-15T08:05:59;100724.06;;;0.92;100.00
41202;BME280;26936;50.524;8.684;2023-02-15T08:08:26;100713.59;;;0.86;100.00
41202;BME280;26936;50.524;8.684;2023-02-15T08:16:42;100712.28;;;1.11;100.00
41202;BME280;26936;50.524;8.684;2023-02-15T08:19:11;100716.72;;;1.00;100.00
41202;BME280;26936;50.524;8.684;2023-02-15T08:21:40;100717.72;;;1.07;100.00
41202;BME280;26936;50.524;8.684;2023-02-15T08:24:07;100718.69;;;1.15;100.00
41202;BME280;26936;50.524;8.684;2023-02-15T08:26:34;100727.03;;;1.15;100.00
41202;BME280;26936;50.524;8.684;2023-02-15T08:29:00;100723.69;;;1.09;100.00
41202;BME280;26936;50.524;8.684;2023-02-15T08:31:26;100717.72;;;1.07;100.00
41202;BME280;26936;50.524;8.684;2023-02-15T08:33:53;100719.06;;;1.13;100.00
41202;BME280;26936;50.524;8.684;2023-02-15T08:36:21;100720.50;;;1.23;100.00
41202;BME280;26936;50.524;8.684;2023-02-15T08:38:47;100718.06;;;1.21;100.00
41202;BME280;26936;50.524;8.684;2023-02-15T08:41:20;100721.66;;;1.22;100.00
41202;BME280;26936;50.524;8.684;2023-02-15T08:43:48;100718.97;;;1.25;100.00
41202;BME280;26936;50.524;8.684;2023-02-15T08:46:15;100712.16;;;1.23;100.00
41202;BME280;26936;50.524;8.684;2023-02-15T08:48:41;100701.13;;;1.42;100.00
41202;BME280;26936;50.524;8.684;2023-02-15T08:51:17;100699.63;;;1.45;100.00
41202;BME280;26936;50.524;8.684;2023-02-15T08:53:47;100693.25;;;1.44;100.00
41202;BME280;26936;50.524;8.684;2023-02-15T08:56:14;100697.44;;;1.54;100.00
41202;BME280;26936;50.524;8.684;2023-02-15T08:58:40;100686.78;;;1.56;100.00
41202;BME280;26936;50.524;8.684;2023-02-15T09:01:14;100686.06;;;1.59;100.00
41202;BME280;26936;50.524;8.684;2023-02-15T09:03:43;100688.97;;;1.47;100.00
41202;BME280;26936;50.524;8.684;2023-02-15T09:06:09;100686.69;;;1.52;100.00
41202;BME280;26936;50.524;8.684;2023-02-15T09:08:34;100689.38;;;1.49;100.00
41202;BME280;26936;50.524;8.684;2023-02-15T09:11:11;100686.47;;;1.42;100.00
41202;BME280;26936;50.524;8.684;2023-02-15T09:13:37;100691.25;;;1.60;100.00
41202;BME280;26936;50.524;8.684;2023-02-15T09:16:05;100685.19;;;1.55;100.00
41202;BME280;26936;50.524;8.684;2023-02-15T09:18:33;100683.47;;;1.66;100.00
41202;BME280;26936;50.524;8.684;2023-02-15T09:21:10;100683.19;;;1.71;100.00
41202;BME280;26936;50.524;8.684;2023-02-15T09:23:35;100676.34;;;1.68;100.00
41202;BME280;26936;50.524;8.684;2023-02-15T09:26:02;100671.53;;;1.65;100.00
41202;BME280;26936;50.524;8.684;2023-02-15T09:28:28;100680.69;;;1.66;100.00
41202;BME280;26936;50.524;8.684;2023-02-15T09:30:53;100671.63;;;1.69;100.00
41202;BME280;26936;50.524;8.684;2023-02-15T09:33:18;100675.50;;;1.49;100.00
41202;BME280;26936;50.524;8.684;2023-02-15T09:35:44;100680.31;;;1.67;100.00
41202;BME280;26936;50.524;8.684;2023-02-15T09:38:09;100677.63;;;1.55;100.00
41202;BME280;26936;50.524;8.684;2023-02-15T09:40:43;100676.31;;;1.65;100.00
41202;BME280;26936;50.524;8.684;2023-02-15T09:43:27;100683.72;;;1.76;100.00
41202;BME280;26936;50.524;8.684;2023-02-15T09:46:27;100666.13;;;1.53;100.00
41202;BME280;26936;50.524;8.684;2023-02-15T09:49:10;100669.50;;;1.62;100.00
41202;BME280;26936;50.524;8.684;2023-02-15T09:51:53;100671.25;;;1.70;100.00
41202;BME280;26936;50.524;8.684;2023-02-15T09:54:36;100669.75;;;1.73;100.00
41202;BME280;26936;50.524;8.684;2023-02-15T10:00:40;100674.13;;;1.74;100.00
41202;BME280;26936;50.524;8.684;2023-02-15T10:09:14;100667.47;;;1.78;100.00
41202;BME280;26936;50.524;8.684;2023-02-15T10:11:52;100673.47;;;1.80;100.00
41202;BME280;26936;50.524;8.684;2023-02-15T10:20:49;100683.13;;;1.86;100.00
41202;BME280;26936;50.524;8.684;2023-02-15T10:23:36;100677.81;;;1.97;100.00
41202;BME280;26936;50.524;8.684;2023-02-15T10:31:17;100678.00;;;1.88;100.00
41202;BME280;26936;50.524;8.684;2023-02-15T10:33:48;100682.41;;;1.89;100.00
41202;BME280;26936;50.524;8.684;2023-02-15T10:39:17;100679.19;;;1.87;100.00
41202;BME280;26936;50.524;8.684;2023-02-15T10:44:41;100684.38;;;1.89;100.00
41202;BME280;26936;50.524;8.684;2023-02-15T10:47:22;100675.69;;;1.90;100.00
41202;BME280;26936;50.524;8.684;2023-02-15T10:50:06;100679.84;;;1.81;100.00
41202;BME280;26936;50.524;8.684;2023-02-15T10:53:04;100675.00;;;1.78;100.00
41202;BME280;26936;50.524;8.684;2023-02-15T10:55:47;100676.81;;;1.70;100.00
41202;BME280;26936;50.524;8.684;2023-02-15T10:58:23;100678.25;;;1.64;100.00
41202;BME280;26936;50.524;8.684;2023-02-15T11:01:05;100682.09;;;1.75;100.00
41202;BME280;26936;50.524;8.684;2023-02-15T11:03:48;100682.28;;;1.67;100.00
41202;BME280;26936;50.524;8.684;2023-02-15T11:06:19;100673.59;;;1.68;100.00
41202;BME280;26936;50.524;8.684;2023-02-15T11:08:59;100681.81;;;1.80;100.00
41202;BME280;26936;50.524;8.684;2023-02-15T11:11:31;100678.63;;;1.63;100.00
41202;BME280;26936;50.524;8.684;2023-02-15T11:14:05;100675.31;;;1.57;100.00
41202;BME280;26936;50.524;8.684;2023-02-15T11:16:42;100672.09;;;1.55;100.00
41202;BME280;26936;50.524;8.684;2023-02-15T11:19:14;100670.94;;;1.56;100.00
41202;BME280;26936;50.524;8.684;2023-02-15T11:21:45;100676.41;;;1.53;100.00
41202;BME280;26936;50.524;8.684;2023-02-15T11:24:14;100671.22;;;1.51;100.00
41202;BME280;26936;50.524;8.684;2023-02-15T11:26:48;100670.56;;;1.58;100.00
41202;BME280;26936;50.524;8.684;2023-02-15T11:31:53;100669.22;;;1.67;100.00
41202;BME280;26936;50.524;8.684;2023-02-15T11:34:42;100661.25;;;1.85;100.00
41202;BME280;26936;50.524;8.684;2023-02-15T11:37:18;100659.06;;;1.75;100.00
41202;BME280;26936;50.524;8.684;2023-02-15T11:39:44;100650.53;;;1.83;100.00
41202;BME280;26936;50.524;8.684;2023-02-15T11:42:19;100652.44;;;1.79;100.00
41202;BME280;26936;50.524;8.684;2023-02-15T11:47:17;100663.25;;;1.84;100.00
41202;BME280;26936;50.524;8.684;2023-02-15T11:49:44;100659.88;;;1.75;100.00
41202;BME280;26936;50.524;8.684;2023-02-15T11:52:13;100659.63;;;1.65;100.00
41202;BME280;26936;50.524;8.684;2023-02-15T11:54:42;100650.72;;;1.75;100.00
41202;BME280;26936;50.524;8.684;2023-02-15T11:57:23;100643.72;;;1.81;100.00
41202;BME280;26936;50.524;8.684;2023-02-15T12:00:00;100644.88;;;1.80;100.00
41202;BME280;26936;50.524;8.684;2023-02-15T12:02:30;100639.97;;;1.73;100.00
41202;BME280;26936;50.524;8.684;2023-02-15T12:05:01;100636.34;;;1.69;100.00
41202;BME280;26936;50.524;8.684;2023-02-15T12:07:49;100629.09;;;1.84;100.00
41202;BME280;26936;50.524;8.684;2023-02-15T12:10:22;100628.75;;;1.85;100.00
41202;BME280;26936;50.524;8.684;2023-02-15T12:13:09;100627.78;;;1.78;100.00
41202;BME280;26936;50.524;8.684;2023-02-15T12:15:35;100630.34;;;1.86;100.00
41202;BME280;26936;50.524;8.684;2023-02-15T12:18:01;100627.84;;;1.81;100.00
41202;BME280;26936;50.524;8.684;2023-02-15T12:20:33;100623.34;;;1.92;100.00
41202;BME280;26936;50.524;8.684;2023-02-15T12:23:05;100610.03;;;1.82;100.00
41202;BME280;26936;50.524;8.684;2023-02-15T12:25:43;100614.31;;;1.80;100.00
41202;BME280;26936;50.524;8.684;2023-02-15T12:28:43;100614.69;;;1.78;100.00
41202;BME280;26936;50.524;8.684;2023-02-15T12:31:32;100602.34;;;1.76;100.00
41202;BME280;26936;50.524;8.684;2023-02-15T12:34:01;100608.84;;;1.83;100.00
41202;BME280;26936;50.524;8.684;2023-02-15T12:36:32;100613.63;;;1.83;100.00
41202;BME280;26936;50.524;8.684;2023-02-15T12:41:56;100610.75;;;1.79;100.00
41202;BME280;26936;50.524;8.684;2023-02-15T12:44:24;100598.03;;;1.78;100.00
41202;BME280;26936;50.524;8.684;2023-02-15T12:47:03;100593.38;;;1.63;100.00
41202;BME280;26936;50.524;8.684;2023-02-15T12:49:32;100599.41;;;1.69;100.00
41202;BME280;26936;50.524;8.684;2023-02-15T12:52:00;100601.56;;;1.40;100.00
41202;BME280;26936;50.524;8.684;2023-02-15T12:54:40;100593.38;;;1.63;100.00
41202;BME280;26936;50.524;8.684;2023-02-15T12:57:26;100595.59;;;1.58;100.00
41202;BME280;26936;50.524;8.684;2023-02-15T13:02:47;100591.00;;;1.65;100.00
41202;BME280;26936;50.524;8.684;2023-02-15T13:05:25;100588.47;;;1.76;100.00
41202;BME280;26936;50.524;8.684;2023-02-15T13:13:10;100569.19;;;1.83;100.00
41202;BME280;26936;50.524;8.684;2023-02-15T13:15:38;100565.22;;;1.84;100.00
41202;BME280;26936;50.524;8.684;2023-02-15T13:18:11;100570.63;;;1.77;100.00
41202;BME280;26936;50.524;8.684;2023-02-15T13:20:40;100557.09;;;1.75;100.00
41202;BME280;26936;50.524;8.684;2023-02-15T13:23:19;100555.50;;;1.74;100.00
41202;BME280;26936;50.524;8.684;2023-02-15T13:25:47;100557.03;;;1.72;100.00
41202;BME280;26936;50.524;8.684;2023-02-15T13:28:17;100553.50;;;1.75;100.00
41202;BME280;26936;50.524;8.684;2023-02-15T13:30:46;100554.91;;;1.84;100.00
41202;BME280;26936;50.524;8.684;2023-02-15T13:33:21;100550.59;;;1.68;100.00
41202;BME280;26936;50.524;8.684;2023-02-15T13:36:02;100552.06;;;1.81;100.00
41202;BME280;26936;50.524;8.684;2023-02-15T13:41:33;100551.03;;;1.89;100.00
41202;BME280;26936;50.524;8.684;2023-02-15T13:44:09;100546.88;;;1.79;100.00
41202;BME280;26936;50.524;8.684;2023-02-15T13:47:05;100544.84;;;1.76;100.00
41202;BME280;26936;50.524;8.684;2023-02-15T13:49:49;100535.91;;;1.67;100.00
41202;BME280;26936;50.524;8.684;2023-02-15T13:52:24;100530.44;;;1.71;100.00
41202;BME280;26936;50.524;8.684;2023-02-15T14:02:56;100535.41;;;1.81;100.00
41202;BME280;26936;50.524;8.684;2023-02-15T14:08:15;100533.69;;;1.95;100.00
41202;BME280;26936;50.524;8.684;2023-02-15T14:18:49;100516.53;;;1.90;100.00
41202;BME280;26936;50.524;8.684;2023-02-15T14:21:31;100525.50;;;2.02;100.00
41202;BME280;26936;50.524;8.684;2023-02-15T14:24:24;100516.72;;;2.00;100.00
41202;BME280;26936;50.524;8.684;2023-02-15T14:29:55;100526.59;;;2.17;100.00
41202;BME280;26936;50.524;8.684;2023-02-15T14:32:38;100528.63;;;2.20;100.00
41202;BME280;26936;50.524;8.684;2023-02-15T14:35:16;100524.97;;;2.16;100.00
41202;BME280;26936;50.524;8.684;2023-02-15T14:43:30;100503.59;;;2.20;100.00
41202;BME280;26936;50.524;8.684;2023-02-15T14:48:49;100501.13;;;2.15;100.00
41202;BME280;26936;50.524;8.684;2023-02-15T14:54:10;100497.06;;;2.09;100.00
41202;BME280;26936;50.524;8.684;2023-02-15T14:56:36;100500.44;;;1.99;100.00
41202;BME280;26936;50.524;8.684;2023-02-15T15:01:38;100487.22;;;1.92;100.00